sensor_id;sensor_type;location;lat;lon;timestamp;pressure;altitude;pressure_sealevel;temperature;humidity
66762;BME280;53672;48.176;16.338;2023-07-20T00:04:32;98649.47;;;20.70;51.39
66762;BME280;53672;48.176;16.338;2023-07-20T00:09:33;98631.91;;;20.65;51.61
66762;BME280;53672;48.176;16.338;2023-07-20T00:14:34;98621.56;;;20.60;51.91
66762;BME280;53672;48.176;16.338;2023-07-20T00:19:35;98626.53;;;20.53;51.85
66762;BME280;53672;48.176;16.338;2023-07-20T00:24:35;98634.31;;;20.46;51.98
66762;BME280;53672;48.176;16.338;2023-07-20T00:29:37;98639.63;;;20.43;51.85
66762;BME280;53672;48.176;16.338;2023-07-20T00:34:38;98657.16;;;20.43;51.90
66762;BME280;53672;48.176;16.338;2023-07-20T00:39:38;98661.91;;;20.43;52.05
66762;BME280;53672;48.176;16.338;2023-07-20T00:44:40;98667.78;;;20.46;51.84
66762;BME280;53672;48.176;16.338;2023-07-20T00:49:40;98666.69;;;20.52;52.26
66762;BME280;53672;48.176;16.338;2023-07-20T00:54:41;98687.09;;;20.58;52.28
66762;BME280;53672;48.176;16.338;2023-07-20T00:59:43;98687.38;;;20.61;52.43
66762;BME280;53672;48.176;16.338;2023-07-20T01:04:44;98669.00;;;20.70;52.58
66762;BME280;53672;48.176;16.338;2023-07-20T01:09:48;98656.53;;;20.83;52.07
66762;BME280;53672;48.176;16.338;2023-07-20T01:14:53;98642.38;;;21.00;51.17
66762;BME280;53672;48.176;16.338;2023-07-20T01:19:54;98646.34;;;21.14;50.66
66762;BME280;53672;48.176;16.338;2023-07-20T01:25:10;98658.63;;;21.28;50.51
66762;BME280;53672;48.176;16.338;2023-07-20T01:30:27;98653.06;;;21.38;50.01
66762;BME280;53672;48.176;16.338;2023-07-20T01:35:35;98646.94;;;21.46;49.34
66762;BME280;53672;48.176;16.338;2023-07-20T01:40:37;98644.97;;;21.52;48.43
66762;BME280;53672;48.176;16.338;2023-07-20T01:45:38;98659.25;;;21.55;48.32
66762;BME280;53672;48.176;16.338;2023-07-20T01:50:40;98656.72;;;21.54;48.65
66762;BME280;53672;48.176;16.338;2023-07-20T01:55:41;98641.38;;;21.46;49.06
66762;BME280;53672;48.176;16.338;2023-07-20T02:00:41;98637.16;;;21.33;50.09
66762;BME280;53672;48.176;16.338;2023-07-20T02:05:43;98656.41;;;21.30;50.33
66762;BME280;53672;48.176;16.338;2023-07-20T02:10:45;98662.25;;;21.23;50.82
66762;BME280;53672;48.176;16.338;2023-07-20T02:15:45;98668.34;;;21.10;51.22
66762;BME280;53672;48.176;16.338;2023-07-20T02:20:47;98675.09;;;21.19;51.14
66762;BME280;53672;48.176;16.338;2023-07-20T02:25:48;98680.94;;;21.18;51.75
66762;BME280;53672;48.176;16.338;2023-07-20T02:30:48;98689.88;;;21.15;51.73
66762;BME280;53672;48.176;16.338;2023-07-20T02:35:50;98697.69;;;21.13;51.83
66762;BME280;53672;48.176;16.338;2023-07-20T02:40:50;98696.56;;;21.09;51.92
66762;BME280;53672;48.176;16.338;2023-07-20T02:45:51;98702.97;;;21.04;52.11
66762;BME280;53672;48.176;16.338;2023-07-20T02:50:53;98714.13;;;21.04;51.98
66762;BME280;53672;48.176;16.338;2023-07-20T02:55:53;98728.34;;;21.03;51.98
66762;BME280;53672;48.176;16.338;2023-07-20T03:00:54;98726.06;;;20.95;52.30
66762;BME280;53672;48.176;16.338;2023-07-20T03:05:55;98735.56;;;20.89;52.27
66762;BME280;53672;48.176;16.338;2023-07-20T03:10:56;98739.38;;;20.83;52.56
66762;BME280;53672;48.176;16.338;2023-07-20T03:15:56;98746.91;;;20.82;52.29
66762;BME280;53672;48.176;16.338;2023-07-20T03:20:58;98763.91;;;20.80;52.01
66762;BME280;53672;48.176;16.338;2023-07-20T03:25:59;98757.50;;;20.80;51.99
66762;BME280;53672;48.176;16.338;2023-07-20T03:31:00;98756.97;;;20.83;51.17
66762;BME280;53672;48.176;16.338;2023-07-20T03:36:02;98764.59;;;20.93;50.93
66762;BME280;53672;48.176;16.338;2023-07-20T03:41:02;98774.63;;;20.94;50.74
66762;BME280;53672;48.176;16.338;2023-07-20T03:46:03;98800.34;;;21.01;50.59
66762;BME280;53672;48.176;16.338;2023-07-20T03:51:05;98792.56;;;21.08;50.77
66762;BME280;53672;48.176;16.338;2023-07-20T03:56:05;98792.31;;;21.14;50.74
66762;BME280;53672;48.176;16.338;2023-07-20T04:01:06;98788.69;;;21.19;50.72
66762;BME280;53672;48.176;16.338;2023-07-20T04:06:08;98796.03;;;21.30;50.39
66762;BME280;53672;48.176;16.338;2023-07-20T04:11:08;98799.94;;;21.34;50.94
66762;BME280;53672;48.176;16.338;2023-07-20T04:16:09;98802.75;;;21.44;50.79
66762;BME280;53672;48.176;16.338;2023-07-20T04:21:10;98813.41;;;21.52;50.68
66762;BME280;53672;48.176;16.338;2023-07-20T04:26:11;98827.94;;;21.54;51.04
66762;BME280;53672;48.176;16.338;2023-07-20T04:31:12;98833.31;;;21.61;51.31
66762;BME280;53672;48.176;16.338;2023-07-20T04:36:14;98827.44;;;21.62;51.75
66762;BME280;53672;48.176;16.338;2023-07-20T04:41:14;98831.94;;;21.68;51.46
66762;BME280;53672;48.176;16.338;2023-07-20T04:46:15;98832.50;;;21.70;51.59
66762;BME280;53672;48.176;16.338;2023-07-20T04:51:16;98836.41;;;21.74;51.77
66762;BME280;53672;48.176;16.338;2023-07-20T04:56:17;98836.47;;;21.84;51.94
66762;BME280;53672;48.176;16.338;2023-07-20T05:01:17;98833.69;;;21.89;51.80
66762;BME280;53672;48.176;16.338;2023-07-20T05:06:19;98836.50;;;22.04;51.91
66762;BME280;53672;48.176;16.338;2023-07-20T05:11:20;98845.53;;;22.37;50.54
66762;BME280;53672;48.176;16.338;2023-07-20T05:16:20;98848.06;;;22.53;50.08
66762;BME280;53672;48.176;16.338;2023-07-20T05:21:22;98851.66;;;22.54;49.86
66762;BME280;53672;48.176;16.338;2023-07-20T05:26:22;98850.56;;;22.40;49.90
66762;BME280;53672;48.176;16.338;2023-07-20T05:31:23;98857.28;;;22.64;49.92
66762;BME280;53672;48.176;16.338;2023-07-20T05:36:25;98853.59;;;23.19;48.58
66762;BME280;53672;48.176;16.338;2023-07-20T05:41:26;98854.59;;;23.58;47.33
66762;BME280;53672;48.176;16.338;2023-07-20T05:46:26;98857.63;;;24.26;46.08
66762;BME280;53672;48.176;16.338;2023-07-20T05:51:28;98855.38;;;24.66;44.90
66762;BME280;53672;48.176;16.338;2023-07-20T05:56:28;98863.66;;;24.81;44.42
66762;BME280;53672;48.176;16.338;2023-07-20T06:01:29;98853.88;;;25.08;43.22
66762;BME280;53672;48.176;16.338;2023-07-20T06:06:31;98859.19;;;25.38;42.70
66762;BME280;53672;48.176;16.338;2023-07-20T06:11:31;98859.78;;;25.58;42.33
66762;BME280;53672;48.176;16.338;2023-07-20T06:16:32;98863.25;;;25.50;41.95
66762;BME280;53672;48.176;16.338;2023-07-20T06:21:33;98871.66;;;25.79;41.09
66762;BME280;53672;48.176;16.338;2023-07-20T06:26:34;98860.41;;;25.98;40.70
66762;BME280;53672;48.176;16.338;2023-07-20T06:31:35;98862.13;;;26.17;39.69
66762;BME280;53672;48.176;16.338;2023-07-20T06:36:37;98864.47;;;26.29;38.87
66762;BME280;53672;48.176;16.338;2023-07-20T06:41:37;98875.53;;;26.63;38.96
66762;BME280;53672;48.176;16.338;2023-07-20T06:46:37;98881.63;;;26.51;38.16
66762;BME280;53672;48.176;16.338;2023-07-20T06:51:39;98882.84;;;26.64;38.78
66762;BME280;53672;48.176;16.338;2023-07-20T06:56:40;98889.56;;;27.00;38.26
66762;BME280;53672;48.176;16.338;2023-07-20T07:01:40;98869.47;;;27.20;37.18
66762;BME280;53672;48.176;16.338;2023-07-20T07:06:42;98875.47;;;27.46;36.88
66762;BME280;53672;48.176;16.338;2023-07-20T07:11:42;98880.59;;;27.57;36.50
66762;BME280;53672;48.176;16.338;2023-07-20T07:16:43;98878.75;;;27.67;36.90
66762;BME280;53672;48.176;16.338;2023-07-20T07:21:45;98878.72;;;27.53;36.78
66762;BME280;53672;48.176;16.338;2023-07-20T07:26:45;98878.47;;;27.36;36.94
66762;BME280;53672;48.176;16.338;2023-07-20T07:31:46;98875.75;;;27.44;37.27
66762;BME280;53672;48.176;16.338;2023-07-20T07:36:48;98875.38;;;28.05;35.22
66762;BME280;53672;48.176;16.338;2023-07-20T07:41:48;98862.31;;;28.59;34.39
66762;BME280;53672;48.176;16.338;2023-07-20T07:46:49;98865.09;;;28.72;34.06
66762;BME280;53672;48.176;16.338;2023-07-20T07:51:50;98862.16;;;28.99;33.52
66762;BME280;53672;48.176;16.338;2023-07-20T07:56:51;98866.16;;;29.29;32.50
66762;BME280;53672;48.176;16.338;2023-07-20T08:01:51;98865.63;;;29.49;31.88
66762;BME280;53672;48.176;16.338;2023-07-20T08:06:53;98858.09;;;29.84;31.62
66762;BME280;53672;48.176;16.338;2023-07-20T08:11:54;98858.34;;;29.96;31.21
66762;BME280;53672;48.176;16.338;2023-07-20T08:16:54;98864.00;;;29.96;31.46
66762;BME280;53672;48.176;16.338;2023-07-20T08:21:56;98855.56;;;29.13;32.89
66762;BME280;53672;48.176;16.338;2023-07-20T08:26:56;98845.56;;;29.68;32.81
66762;BME280;53672;48.176;16.338;2023-07-20T08:31:57;98854.03;;;30.07;32.19
66762;BME280;53672;48.176;16.338;2023-07-20T08:36:59;98852.53;;;29.62;32.31
66762;BME280;53672;48.176;16.338;2023-07-20T08:42:01;98858.13;;;29.45;32.75
66762;BME280;53672;48.176;16.338;2023-07-20T08:47:02;98854.25;;;29.19;32.85
66762;BME280;53672;48.176;16.338;2023-07-20T08:52:04;98841.31;;;29.18;32.56
66762;BME280;53672;48.176;16.338;2023-07-20T08:57:06;98855.59;;;28.55;33.62
66762;BME280;53672;48.176;16.338;2023-07-20T09:02:08;98861.72;;;28.48;33.98
66762;BME280;53672;48.176;16.338;2023-07-20T09:07:15;98871.38;;;28.91;33.08
66762;BME280;53672;48.176;16.338;2023-07-20T09:12:16;98859.13;;;29.18;32.61
66762;BME280;53672;48.176;16.338;2023-07-20T09:17:17;98861.59;;;29.20;32.71
66762;BME280;53672;48.176;16.338;2023-07-20T09:22:19;98855.50;;;29.57;31.12
66762;BME280;53672;48.176;16.338;2023-07-20T09:27:19;98857.28;;;30.66;29.41
66762;BME280;53672;48.176;16.338;2023-07-20T09:32:21;98859.00;;;29.93;27.95
66762;BME280;53672;48.176;16.338;2023-07-20T09:37:23;98854.91;;;32.82;23.36
66762;BME280;53672;48.176;16.338;2023-07-20T09:42:24;98848.22;;;34.89;21.14
66762;BME280;53672;48.176;16.338;2023-07-20T09:47:26;98867.97;;;34.82;21.12
66762;BME280;53672;48.176;16.338;2023-07-20T09:52:28;98859.19;;;32.88;24.17
66762;BME280;53672;48.176;16.338;2023-07-20T09:57:29;98860.16;;;33.13;23.97
66762;BME280;53672;48.176;16.338;2023-07-20T10:02:33;98866.94;;;33.21;23.82
66762;BME280;53672;48.176;16.338;2023-07-20T10:07:36;98871.03;;;31.44;26.15
66762;BME280;53672;48.176;16.338;2023-07-20T10:12:37;98861.81;;;33.47;23.70
66762;BME280;53672;48.176;16.338;2023-07-20T10:17:47;98864.75;;;33.50;23.58
66762;BME280;53672;48.176;16.338;2023-07-20T10:22:53;98866.38;;;36.80;19.01
66762;BME280;53672;48.176;16.338;2023-07-20T10:27:54;98851.06;;;37.27;18.71
66762;BME280;53672;48.176;16.338;2023-07-20T10:32:55;98853.41;;;39.16;15.05
66762;BME280;53672;48.176;16.338;2023-07-20T10:38:01;98839.16;;;38.94;16.39
66762;BME280;53672;48.176;16.338;2023-07-20T10:43:04;98846.34;;;42.21;13.53
66762;BME280;53672;48.176;16.338;2023-07-20T10:48:05;98841.47;;;37.61;17.32
66762;BME280;53672;48.176;16.338;2023-07-20T10:53:11;98854.78;;;38.67;16.56
66762;BME280;53672;48.176;16.338;2023-07-20T10:58:13;98849.19;;;40.24;14.75
66762;BME280;53672;48.176;16.338;2023-07-20T11:03:26;98833.94;;;37.72;17.05
66762;BME280;53672;48.176;16.338;2023-07-20T11:08:41;98834.09;;;40.34;14.87
66762;BME280;53672;48.176;16.338;2023-07-20T11:13:54;98824.31;;;41.22;14.22
66762;BME280;53672;48.176;16.338;2023-07-20T12:36:15;98767.13;;;44.03;10.36
66762;BME280;53672;48.176;16.338;2023-07-20T12:41:16;98759.19;;;42.83;10.83
66762;BME280;53672;48.176;16.338;2023-07-20T12:46:16;98765.75;;;40.24;12.94
66762;BME280;53672;48.176;16.338;2023-07-20T12:51:18;98762.06;;;37.84;14.95
66762;BME280;53672;48.176;16.338;2023-07-20T12:56:19;98739.91;;;36.94;15.33
66762;BME280;53672;48.176;16.338;2023-07-20T13:01:19;98747.41;;;35.91;16.73
66762;BME280;53672;48.176;16.338;2023-07-20T13:06:21;98759.31;;;35.93;17.45
66762;BME280;53672;48.176;16.338;2023-07-20T13:11:21;98742.06;;;35.11;16.84
66762;BME280;53672;48.176;16.338;2023-07-20T13:16:22;98752.47;;;34.36;18.39
66762;BME280;53672;48.176;16.338;2023-07-20T13:21:24;98757.56;;;34.55;18.34
66762;BME280;53672;48.176;16.338;2023-07-20T13:26:24;98754.69;;;33.91;19.40
66762;BME280;53672;48.176;16.338;2023-07-20T13:31:25;98742.94;;;32.87;19.64
66762;BME280;53672;48.176;16.338;2023-07-20T13:36:26;98755.06;;;32.63;20.51
66762;BME280;53672;48.176;16.338;2023-07-20T13:41:27;98749.94;;;32.36;20.22
66762;BME280;53672;48.176;16.338;2023-07-20T13:46:27;98742.66;;;32.26;20.43
66762;BME280;53672;48.176;16.338;2023-07-20T13:51:29;98752.31;;;32.13;20.30
66762;BME280;53672;48.176;16.338;2023-07-20T13:56:30;98740.84;;;32.22;20.68
66762;BME280;53672;48.176;16.338;2023-07-20T14:01:30;98753.34;;;31.80;20.88
66762;BME280;53672;48.176;16.338;2023-07-20T14:06:32;98742.34;;;31.11;21.11
66762;BME280;53672;48.176;16.338;2023-07-20T14:11:33;98732.06;;;30.72;21.64
66762;BME280;53672;48.176;16.338;2023-07-20T14:16:33;98746.88;;;30.95;22.26
66762;BME280;53672;48.176;16.338;2023-07-20T14:21:35;98734.75;;;31.24;21.48
66762;BME280;53672;48.176;16.338;2023-07-20T14:26:36;98737.84;;;31.01;21.74
66762;BME280;53672;48.176;16.338;2023-07-20T14:31:36;98751.38;;;30.87;21.46
66762;BME280;53672;48.176;16.338;2023-07-20T14:36:38;98753.56;;;30.73;21.80
66762;BME280;53672;48.176;16.338;2023-07-20T14:41:38;98737.78;;;30.47;22.70
66762;BME280;53672;48.176;16.338;2023-07-20T14:46:39;98747.44;;;30.63;22.45
66762;BME280;53672;48.176;16.338;2023-07-20T14:51:41;98736.25;;;30.66;22.19
66762;BME280;53672;48.176;16.338;2023-07-20T14:56:49;98737.44;;;30.22;22.27
66762;BME280;53672;48.176;16.338;2023-07-20T15:01:50;98726.44;;;29.95;22.80
66762;BME280;53672;48.176;16.338;2023-07-20T15:06:51;98721.91;;;29.21;23.77
66762;BME280;53672;48.176;16.338;2023-07-20T15:11:52;98733.94;;;29.35;24.36
66762;BME280;53672;48.176;16.338;2023-07-20T15:16:52;98728.97;;;29.40;24.31
66762;BME280;53672;48.176;16.338;2023-07-20T15:21:54;98727.81;;;29.02;24.21
66762;BME280;53672;48.176;16.338;2023-07-20T15:26:55;98727.44;;;28.73;24.93
66762;BME280;53672;48.176;16.338;2023-07-20T15:31:55;98723.09;;;28.67;25.21
66762;BME280;53672;48.176;16.338;2023-07-20T15:36:57;98725.75;;;28.63;25.55
66762;BME280;53672;48.176;16.338;2023-07-20T15:41:57;98705.84;;;28.46;25.80
66762;BME280;53672;48.176;16.338;2023-07-20T15:46:58;98712.34;;;28.47;25.71
66762;BME280;53672;48.176;16.338;2023-07-20T15:52:00;98716.31;;;28.46;26.15
66762;BME280;53672;48.176;16.338;2023-07-20T15:57:00;98720.50;;;28.26;26.20
66762;BME280;53672;48.176;16.338;2023-07-20T16:02:01;98724.19;;;28.13;25.93
66762;BME280;53672;48.176;16.338;2023-07-20T16:07:03;98724.44;;;28.03;26.03
66762;BME280;53672;48.176;16.338;2023-07-20T16:12:05;98722.03;;;27.74;25.83
66762;BME280;53672;48.176;16.338;2023-07-20T16:17:06;98717.63;;;27.54;26.59
66762;BME280;53672;48.176;16.338;2023-07-20T16:22:07;98716.81;;;27.40;26.70
66762;BME280;53672;48.176;16.338;2023-07-20T16:27:08;98723.63;;;27.39;27.51
66762;BME280;53672;48.176;16.338;2023-07-20T16:32:09;98719.34;;;27.42;27.56
66762;BME280;53672;48.176;16.338;2023-07-20T16:37:11;98719.88;;;27.30;27.07
66762;BME280;53672;48.176;16.338;2023-07-20T16:42:11;98723.84;;;27.29;27.55
66762;BME280;53672;48.176;16.338;2023-07-20T16:47:12;98721.88;;;27.16;27.62
66762;BME280;53672;48.176;16.338;2023-07-20T16:52:13;98720.19;;;27.02;27.18
66762;BME280;53672;48.176;16.338;2023-07-20T16:57:14;98735.78;;;26.94;27.70
66762;BME280;53672;48.176;16.338;2023-07-20T17:02:14;98728.91;;;26.73;27.82
66762;BME280;53672;48.176;16.338;2023-07-20T17:07:16;98733.22;;;26.52;27.81
66762;BME280;53672;48.176;16.338;2023-07-20T17:12:17;98736.13;;;26.47;28.41
66762;BME280;53672;48.176;16.338;2023-07-20T17:17:17;98733.84;;;26.30;28.64
66762;BME280;53672;48.176;16.338;2023-07-20T17:22:19;98739.19;;;26.32;28.87
66762;BME280;53672;48.176;16.338;2023-07-20T17:27:20;98733.50;;;26.18;29.04
66762;BME280;53672;48.176;16.338;2023-07-20T17:32:20;98748.06;;;26.06;29.12
66762;BME280;53672;48.176;16.338;2023-07-20T17:37:22;98749.03;;;25.97;29.46
66762;BME280;53672;48.176;16.338;2023-07-20T17:42:23;98744.66;;;25.91;29.48
66762;BME280;53672;48.176;16.338;2023-07-20T17:47:23;98753.75;;;25.83;30.09
66762;BME280;53672;48.176;16.338;2023-07-20T17:52:26;98753.63;;;25.69;29.91
66762;BME280;53672;48.176;16.338;2023-07-20T17:57:27;98747.34;;;25.58;30.60
66762;BME280;53672;48.176;16.338;2023-07-20T18:02:28;98748.31;;;25.49;30.68
66762;BME280;53672;48.176;16.338;2023-07-20T18:07:30;98750.75;;;25.32;30.78
66762;BME280;53672;48.176;16.338;2023-07-20T18:12:31;98747.53;;;25.20;31.19
66762;BME280;53672;48.176;16.338;2023-07-20T18:17:32;98752.16;;;25.11;31.32
66762;BME280;53672;48.176;16.338;2023-07-20T18:22:34;98749.50;;;24.96;31.77
66762;BME280;53672;48.176;16.338;2023-07-20T18:27:35;98752.47;;;24.80;32.15
66762;BME280;53672;48.176;16.338;2023-07-20T18:32:36;98753.69;;;24.69;32.55
66762;BME280;53672;48.176;16.338;2023-07-20T18:37:38;98764.78;;;24.56;32.85
66762;BME280;53672;48.176;16.338;2023-07-20T18:42:39;98759.06;;;24.37;33.30
66762;BME280;53672;48.176;16.338;2023-07-20T18:47:41;98765.09;;;24.20;33.44
66762;BME280;53672;48.176;16.338;2023-07-20T18:52:42;98767.72;;;24.07;33.85
66762;BME280;53672;48.176;16.338;2023-07-20T18:57:43;98773.69;;;23.95;34.28
66762;BME280;53672;48.176;16.338;2023-07-20T19:02:44;98783.88;;;23.81;34.43
66762;BME280;53672;48.176;16.338;2023-07-20T19:07:48;98780.28;;;23.66;35.15
66762;BME280;53672;48.176;16.338;2023-07-20T19:12:48;98789.03;;;23.54;34.84
66762;BME280;53672;48.176;16.338;2023-07-20T19:17:49;98787.41;;;23.43;34.92
66762;BME280;53672;48.176;16.338;2023-07-20T19:22:51;98802.31;;;23.28;35.16
66762;BME280;53672;48.176;16.338;2023-07-20T19:27:52;98798.44;;;23.14;35.68
66762;BME280;53672;48.176;16.338;2023-07-20T19:32:53;98802.34;;;23.03;36.30
66762;BME280;53672;48.176;16.338;2023-07-20T19:37:55;98805.47;;;22.97;36.25
66762;BME280;53672;48.176;16.338;2023-07-20T19:42:56;98808.00;;;22.88;36.68
66762;BME280;53672;48.176;16.338;2023-07-20T19:47:56;98813.06;;;22.81;36.55
66762;BME280;53672;48.176;16.338;2023-07-20T19:52:58;98816.41;;;22.68;37.27
66762;BME280;53672;48.176;16.338;2023-07-20T19:57:59;98813.06;;;22.61;37.21
66762;BME280;53672;48.176;16.338;2023-07-20T20:03:00;98823.69;;;22.54;37.68
66762;BME280;53672;48.176;16.338;2023-07-20T20:08:03;98823.16;;;22.47;37.94
66762;BME280;53672;48.176;16.338;2023-07-20T20:13:05;98827.34;;;22.39;38.33
66762;BME280;53672;48.176;16.338;2023-07-20T20:18:08;98826.75;;;22.32;38.41
66762;BME280;53672;48.176;16.338;2023-07-20T20:23:17;98819.19;;;22.28;38.89
66762;BME280;53672;48.176;16.338;2023-07-20T20:28:18;98822.56;;;22.14;38.94
66762;BME280;53672;48.176;16.338;2023-07-20T20:33:19;98820.84;;;22.08;39.17
66762;BME280;53672;48.176;16.338;2023-07-20T20:38:23;98823.91;;;21.97;39.36
66762;BME280;53672;48.176;16.338;2023-07-20T20:43:24;98825.84;;;21.86;39.83
66762;BME280;53672;48.176;16.338;2023-07-20T20:48:24;98817.72;;;21.75;40.15
66762;BME280;53672;48.176;16.338;2023-07-20T20:53:27;98818.50;;;21.65;40.86
66762;BME280;53672;48.176;16.338;2023-07-20T20:58:28;98814.84;;;21.55;41.13
66762;BME280;53672;48.176;16.338;2023-07-20T21:03:29;98817.31;;;21.46;41.48
66762;BME280;53672;48.176;16.338;2023-07-20T21:08:31;98826.22;;;21.43;41.57
66762;BME280;53672;48.176;16.338;2023-07-20T21:13:31;98831.22;;;21.36;41.72
66762;BME280;53672;48.176;16.338;2023-07-20T21:18:31;98826.72;;;21.25;42.36
66762;BME280;53672;48.176;16.338;2023-07-20T21:23:33;98835.31;;;21.13;42.43
66762;BME280;53672;48.176;16.338;2023-07-20T21:28:35;98831.06;;;21.06;42.62
66762;BME280;53672;48.176;16.338;2023-07-20T21:33:36;98837.75;;;21.00;43.17
66762;BME280;53672;48.176;16.338;2023-07-20T21:38:38;98839.09;;;20.92;43.18
66762;BME280;53672;48.176;16.338;2023-07-20T21:43:38;98829.81;;;20.87;43.55
66762;BME280;53672;48.176;16.338;2023-07-20T21:48:39;98838.97;;;20.82;43.67
66762;BME280;53672;48.176;16.338;2023-07-20T21:53:41;98838.59;;;20.68;44.15
66762;BME280;53672;48.176;16.338;2023-07-20T21:58:41;98841.03;;;20.60;44.65
66762;BME280;53672;48.176;16.338;2023-07-20T22:03:41;98839.63;;;20.57;44.49
66762;BME280;53672;48.176;16.338;2023-07-20T22:08:43;98840.72;;;20.51;45.30
66762;BME280;53672;48.176;16.338;2023-07-20T22:13:44;98849.59;;;20.48;45.14
66762;BME280;53672;48.176;16.338;2023-07-20T22:18:44;98848.41;;;20.39;45.34
66762;BME280;53672;48.176;16.338;2023-07-20T22:23:46;98853.63;;;20.31;45.67
66762;BME280;53672;48.176;16.338;2023-07-20T22:28:47;98861.38;;;20.24;45.78
66762;BME280;53672;48.176;16.338;2023-07-20T22:33:47;98858.81;;;20.17;46.10
66762;BME280;53672;48.176;16.338;2023-07-20T22:38:49;98861.66;;;20.22;45.87
66762;BME280;53672;48.176;16.338;2023-07-20T22:43:49;98854.03;;;20.13;46.02
66762;BME280;53672;48.176;16.338;2023-07-20T22:48:50;98856.66;;;20.02;46.03
66762;BME280;53672;48.176;16.338;2023-07-20T22:53:52;98856.88;;;20.18;46.03
66762;BME280;53672;48.176;16.338;2023-07-20T22:58:52;98861.09;;;20.25;45.92
66762;BME280;53672;48.176;16.338;2023-07-20T23:03:53;98860.59;;;20.28;45.61
66762;BME280;53672;48.176;16.338;2023-07-20T23:08:54;98865.41;;;20.11;46.44
66762;BME280;53672;48.176;16.338;2023-07-20T23:13:55;98869.91;;;19.90;46.64
66762;BME280;53672;48.176;16.338;2023-07-20T23:18:56;98869.47;;;19.77;47.83
66762;BME280;53672;48.176;16.338;2023-07-20T23:23:58;98873.88;;;19.73;47.70
66762;BME280;53672;48.176;16.338;2023-07-20T23:28:58;98876.50;;;19.58;48.41
66762;BME280;53672;48.176;16.338;2023-07-20T23:33:59;98862.16;;;19.49;48.41
66762;BME280;53672;48.176;16.338;2023-07-20T23:39:00;98874.09;;;19.45;48.46
66762;BME280;53672;48.176;16.338;2023-07-20T23:44:01;98880.69;;;19.38;49.34
66762;BME280;53672;48.176;16.338;2023-07-20T23:49:02;98871.84;;;19.42;49.00
66762;BME280;53672;48.176;16.338;2023-07-20T23:54:03;98872.69;;;19.42;48.84
66762;BME280;53672;48.176;16.338;2023-07-20T23:59:04;98875.97;;;19.39;49.45
